Time;durP1;ratioP1;P1;durP2;ratioP2;P2;SDS_P1;SDS_P2;PMS_P1;PMS_P2;Temp;Humidity;BMP_temperature;BMP_pressure;BME280_temperature;BME280_humidity;BME280_pressure;Samples;Min_cycle;Max_cycle;Signal;HPM_P1;HPM_P2
2022/03/23 00:01:44;;;;;;;15.57;13.30;;;7.40;74.40;;;;;;5008322;28;20194;-66
2022/03/23 00:04:10;;;;;;;19.77;14.23;;;7.40;74.80;;;;;;5015563;28;20568;-66
2022/03/23 00:06:35;;;;;;;14.37;12.87;;;7.30;77.00;;;;;;5010828;28;20254;-67
2022/03/23 00:09:02;;;;;;;18.53;13.90;;;7.30;76.90;;;;;;5004254;28;20830;-66
2022/03/23 00:11:28;;;;;;;17.73;14.80;;;7.20;75.10;;;;;;5009837;28;20182;-66
2022/03/23 00:13:54;;;;;;;16.33;13.20;;;7.20;74.80;;;;;;5009175;28;20437;-66
2022/03/23 00:16:20;;;;;;;19.03;15.80;;;7.30;74.00;;;;;;5011752;28;20445;-66
2022/03/23 00:18:46;;;;;;;17.97;13.80;;;7.30;73.60;;;;;;5006504;28;20434;-66
2022/03/23 00:21:11;;;;;;;15.20;13.53;;;7.30;73.40;;;;;;5011669;28;20444;-67
2022/03/23 00:23:37;;;;;;;16.10;14.13;;;7.30;74.20;;;;;;5003777;28;20285;-66
2022/03/23 00:26:03;;;;;;;15.13;13.30;;;7.20;75.40;;;;;;5009526;28;20187;-66
2022/03/23 00:28:29;;;;;;;16.07;14.17;;;7.20;75.70;;;;;;5005107;28;20610;-66
2022/03/23 00:30:55;;;;;;;16.50;13.73;;;7.10;75.20;;;;;;5010866;28;20517;-66
2022/03/23 00:33:23;;;;;;;18.37;13.43;;;7.20;75.50;;;;;;4998450;28;20206;-66
2022/03/23 00:35:49;;;;;;;17.43;14.23;;;7.10;75.80;;;;;;5011026;28;20194;-66
2022/03/23 00:38:16;;;;;;;20.23;12.47;;;7.20;75.60;;;;;;5011162;28;20505;-66
2022/03/23 00:40:43;;;;;;;13.83;12.27;;;7.20;75.20;;;;;;5008733;28;20466;-67
2022/03/23 00:43:09;;;;;;;16.33;13.17;;;7.30;74.90;;;;;;5009756;28;20454;-66
2022/03/23 00:45:34;;;;;;;18.20;13.30;;;7.20;76.00;;;;;;5008063;28;20491;-66
2022/03/23 00:48:00;;;;;;;15.70;13.97;;;7.20;76.60;;;;;;5011373;28;20593;-66
2022/03/23 00:50:26;;;;;;;15.37;13.27;;;7.10;77.50;;;;;;5011374;28;20202;-66
2022/03/23 00:52:51;;;;;;;18.80;14.37;;;7.10;77.40;;;;;;5007778;28;20203;-66
2022/03/23 00:55:18;;;;;;;14.30;12.80;;;7.00;80.70;;;;;;5011740;28;20492;-66
2022/03/23 00:57:43;;;;;;;15.27;13.20;;;6.90;78.00;;;;;;5009451;28;20187;-66
2022/03/23 01:00:12;;;;;;;16.43;13.07;;;6.80;75.70;;;;;;5004956;28;20458;-66
2022/03/23 01:02:42;;;;;;;17.63;14.10;;;6.90;76.30;;;;;;5007141;28;20178;-66
2022/03/23 01:05:09;;;;;;;15.87;13.47;;;7.00;75.70;;;;;;5009434;28;20462;-66
2022/03/23 01:07:38;;;;;;;16.17;13.43;;;6.90;75.10;;;;;;5007668;28;21231;-66
2022/03/23 01:10:06;;;;;;;16.00;12.83;;;6.90;75.70;;;;;;5009316;28;20838;-67
2022/03/23 01:12:31;;;;;;;14.33;12.83;;;6.90;78.70;;;;;;4999840;28;20497;-67
2022/03/23 01:14:57;;;;;;;15.00;13.37;;;6.90;79.80;;;;;;5005451;28;20450;-66
2022/03/23 01:17:23;;;;;;;19.20;13.33;;;6.90;79.50;;;;;;5010844;28;20262;-66
2022/03/23 01:19:49;;;;;;;14.63;12.83;;;6.80;78.30;;;;;;5005453;28;20249;-66
2022/03/23 01:22:16;;;;;;;21.87;14.00;;;6.80;77.60;;;;;;5011075;28;20894;-66
2022/03/23 01:24:42;;;;;;;15.00;12.60;;;6.80;78.10;;;;;;5008583;28;20213;-66
2022/03/23 01:27:08;;;;;;;16.33;14.37;;;6.80;77.60;;;;;;5011326;28;20437;-67
2022/03/23 01:29:34;;;;;;;17.90;14.37;;;6.70;80.20;;;;;;5012384;28;20461;-67
2022/03/23 01:32:00;;;;;;;15.27;12.90;;;6.60;81.60;;;;;;5008775;28;20512;-67
2022/03/23 01:34:26;;;;;;;21.50;13.80;;;6.60;84.10;;;;;;5012630;28;20237;-66
2022/03/23 01:36:51;;;;;;;19.13;14.57;;;6.50;85.20;;;;;;5005701;28;20187;-66
2022/03/23 01:39:17;;;;;;;16.93;14.80;;;6.50;84.90;;;;;;5009534;28;20206;-66
2022/03/23 01:41:42;;;;;;;17.03;13.97;;;6.50;82.90;;;;;;5006557;28;20198;-66
2022/03/23 01:44:15;;;;;;;16.07;13.47;;;6.50;83.00;;;;;;4999084;28;20276;-66
2022/03/23 01:47:07;;;;;;;30.57;14.73;;;6.50;82.40;;;;;;5009653;28;20224;-66
2022/03/23 01:49:34;;;;;;;16.07;14.37;;;6.50;82.30;;;;;;4996528;28;20493;-66
2022/03/23 01:52:01;;;;;;;17.17;14.40;;;6.50;82.10;;;;;;4999692;28;20434;-66
2022/03/23 01:54:26;;;;;;;14.10;12.60;;;6.50;82.50;;;;;;5003364;28;20520;-66
2022/03/23 01:56:53;;;;;;;13.83;12.43;;;6.50;81.00;;;;;;5005506;28;20731;-66
2022/03/23 01:59:19;;;;;;;14.67;12.00;;;6.50;81.50;;;;;;5003575;28;20234;-66
2022/03/23 02:01:45;;;;;;;16.80;14.57;;;6.40;83.20;;;;;;4999136;28;20965;-66
2022/03/23 02:04:11;;;;;;;18.93;13.80;;;6.40;85.60;;;;;;5004452;28;21009;-66
2022/03/23 02:06:37;;;;;;;19.13;16.03;;;6.30;86.80;;;;;;5003390;28;20442;-66
2022/03/23 02:09:03;;;;;;;19.20;16.37;;;6.20;86.50;;;;;;5003058;28;20580;-66
2022/03/23 02:11:29;;;;;;;20.10;14.37;;;6.20;85.10;;;;;;5005526;28;20482;-66
2022/03/23 02:13:54;;;;;;;18.10;14.80;;;6.20;84.60;;;;;;5001909;28;20504;-66
2022/03/23 02:16:20;;;;;;;18.87;14.27;;;6.20;86.00;;;;;;5005580;28;20182;-66
2022/03/23 02:18:46;;;;;;;13.50;11.50;;;6.10;89.00;;;;;;5003329;28;20184;-66
2022/03/23 02:21:15;;;;;;;16.57;12.40;;;6.10;87.90;;;;;;5004049;28;20186;-66
2022/03/23 02:23:41;;;;;;;15.73;12.30;;;6.10;86.30;;;;;;5005062;28;20318;-66
2022/03/23 02:26:08;;;;;;;15.43;12.40;;;6.00;84.80;;;;;;5009553;28;20532;-66
2022/03/23 02:28:34;;;;;;;13.83;12.43;;;6.00;86.20;;;;;;5010810;28;20496;-66
2022/03/23 02:31:01;;;;;;;16.23;14.10;;;5.90;89.30;;;;;;5005216;28;20438;-66
2022/03/23 02:33:27;;;;;;;16.93;15.10;;;5.90;90.30;;;;;;5006313;28;20445;-66
2022/03/23 02:35:53;;;;;;;13.27;11.97;;;5.80;89.80;;;;;;5006294;28;20442;-66
2022/03/23 02:38:19;;;;;;;17.43;13.90;;;5.80;89.10;;;;;;5010565;28;20464;-67
2022/03/23 02:40:45;;;;;;;16.07;13.50;;;5.80;88.20;;;;;;5006077;28;20629;-66
2022/03/23 02:43:11;;;;;;;16.70;13.57;;;5.80;87.70;;;;;;5010026;28;20199;-66
2022/03/23 02:45:37;;;;;;;13.50;11.47;;;5.90;88.10;;;;;;5008750;28;20469;-66
2022/03/23 02:48:06;;;;;;;14.60;11.70;;;5.80;89.00;;;;;;5003081;28;20191;-66
2022/03/23 02:50:33;;;;;;;17.43;13.70;;;5.80;89.20;;;;;;5003370;28;20265;-66
2022/03/23 03:04:12;;;;;;;13.97;12.50;;;5.60;92.80;;;;;;5011001;28;20519;-66
2022/03/23 03:06:38;;;;;;;13.50;11.70;;;5.50;92.50;;;;;;5008220;28;20933;-66
2022/03/23 03:09:04;;;;;;;13.53;12.23;;;5.50;91.80;;;;;;5002074;28;20199;-66
2022/03/23 03:11:30;;;;;;;15.13;12.43;;;5.40;92.20;;;;;;5010996;28;20205;-66
2022/03/23 03:13:55;;;;;;;19.43;12.50;;;5.50;92.30;;;;;;4993045;28;20833;-66
2022/03/23 03:16:21;;;;;;;23.00;13.00;;;5.40;92.70;;;;;;5001913;28;20171;-66
2022/03/23 03:18:47;;;;;;;17.53;12.93;;;5.40;93.20;;;;;;5001542;28;20183;-66
2022/03/23 03:21:13;;;;;;;18.17;14.73;;;5.30;93.00;;;;;;5006249;28;20183;-66
2022/03/23 03:23:42;;;;;;;18.63;13.80;;;5.30;93.20;;;;;;5006626;28;20202;-66
2022/03/23 03:26:09;;;;;;;14.00;11.73;;;5.40;94.00;;;;;;5007874;28;20438;-66
2022/03/23 03:28:36;;;;;;;19.30;13.87;;;5.40;94.50;;;;;;5006938;28;20489;-66
2022/03/23 03:31:03;;;;;;;17.00;13.40;;;5.40;94.60;;;;;;5002753;28;20451;-66
2022/03/23 03:33:29;;;;;;;26.83;18.13;;;5.40;94.70;;;;;;5001560;28;20461;-66
2022/03/23 03:35:54;;;;;;;19.10;14.43;;;5.30;95.30;;;;;;5010759;28;20835;-66
2022/03/23 03:38:20;;;;;;;26.23;16.27;;;5.30;96.00;;;;;;5001734;28;20237;-66
2022/03/23 03:40:45;;;;;;;15.30;12.90;;;5.30;96.00;;;;;;5003837;28;20211;-66
2022/03/23 03:43:12;;;;;;;14.97;13.20;;;5.30;96.50;;;;;;5005127;28;20191;-66
2022/03/23 03:45:37;;;;;;;19.53;14.70;;;5.30;97.20;;;;;;5008677;28;20262;-66
2022/03/23 03:48:03;;;;;;;17.00;14.40;;;5.30;98.00;;;;;;5011470;28;20556;-66
2022/03/23 03:50:28;;;;;;;17.20;13.27;;;5.20;99.00;;;;;;5013843;28;20210;-67
2022/03/23 03:52:54;;;;;;;21.53;14.87;;;5.20;98.70;;;;;;5010383;28;20195;-67
2022/03/23 03:55:20;;;;;;;20.30;15.03;;;5.20;98.60;;;;;;5008002;28;20632;-67
2022/03/23 03:57:45;;;;;;;22.13;17.10;;;5.20;99.10;;;;;;5011556;28;20187;-67
2022/03/23 04:00:12;;;;;;;21.30;16.00;;;5.10;99.60;;;;;;5011883;28;20634;-67
2022/03/23 04:02:38;;;;;;;21.70;16.17;;;5.10;99.90;;;;;;5006731;28;20190;-67
2022/03/23 04:05:04;;;;;;;27.93;16.77;;;5.10;99.90;;;;;;5009435;28;20445;-67
2022/03/23 04:07:33;;;;;;;22.80;16.53;;;5.10;99.90;;;;;;5004071;28;20180;-67
2022/03/23 04:10:00;;;;;;;20.47;16.60;;;5.10;99.90;;;;;;5004688;28;20876;-67
2022/03/23 04:12:26;;;;;;;20.30;15.73;;;5.10;99.90;;;;;;5010674;28;20732;-67
2022/03/23 04:14:51;;;;;;;24.20;16.20;;;5.10;99.90;;;;;;5003362;28;20973;-67
2022/03/23 04:17:17;;;;;;;19.73;16.27;;;5.20;99.90;;;;;;5011097;28;20186;-67
2022/03/23 04:19:42;;;;;;;22.80;17.80;;;5.10;99.90;;;;;;5010174;28;20278;-67
2022/03/23 04:22:08;;;;;;;19.20;15.83;;;5.10;99.90;;;;;;5010540;28;20190;-67
2022/03/23 04:24:33;;;;;;;24.93;19.30;;;5.00;99.90;;;;;;5009059;28;20187;-67
2022/03/23 04:26:59;;;;;;;22.70;16.63;;;5.00;99.90;;;;;;5007805;28;20186;-67
2022/03/23 04:29:26;;;;;;;23.10;17.40;;;4.90;99.90;;;;;;5012270;28;20198;-67
2022/03/23 04:31:52;;;;;;;22.30;16.80;;;4.90;99.90;;;;;;5011360;28;20179;-67
2022/03/23 04:34:18;;;;;;;26.00;18.23;;;4.90;99.90;;;;;;4998293;28;20826;-67
2022/03/23 04:36:43;;;;;;;23.40;17.63;;;4.90;99.90;;;;;;5011610;28;20442;-67
2022/03/23 04:39:09;;;;;;;27.07;21.60;;;4.80;99.90;;;;;;5010617;28;20239;-67
2022/03/23 04:41:34;;;;;;;27.03;19.47;;;4.80;99.90;;;;;;5009425;28;20180;-67
2022/03/23 04:44:00;;;;;;;29.13;16.90;;;4.70;99.90;;;;;;5004345;28;20195;-67
2022/03/23 04:46:25;;;;;;;25.03;17.37;;;4.70;99.90;;;;;;5007038;28;20182;-67
2022/03/23 04:48:51;;;;;;;25.20;17.50;;;4.60;99.90;;;;;;5004405;28;20199;-67
2022/03/23 04:51:16;;;;;;;19.63;15.80;;;4.60;99.90;;;;;;5013563;28;20252;-67
2022/03/23 04:53:42;;;;;;;21.60;16.00;;;4.60;99.90;;;;;;5009179;28;20253;-67
2022/03/23 04:56:08;;;;;;;27.70;15.70;;;4.60;99.90;;;;;;5006538;28;20171;-67
2022/03/23 04:58:34;;;;;;;19.23;14.93;;;4.50;99.90;;;;;;5007526;28;20635;-67
2022/03/23 05:01:00;;;;;;;22.73;16.03;;;4.50;99.90;;;;;;5010908;28;20525;-67
2022/03/23 05:03:26;;;;;;;25.33;16.17;;;4.50;99.90;;;;;;5007458;28;20521;-67
2022/03/23 05:05:52;;;;;;;24.93;16.70;;;4.60;99.90;;;;;;5008131;28;20186;-67
2022/03/23 05:08:18;;;;;;;24.27;18.00;;;4.60;99.90;;;;;;4997184;28;20233;-67
2022/03/23 05:10:43;;;;;;;24.33;15.63;;;4.60;99.90;;;;;;5004762;28;20492;-66
2022/03/23 05:13:09;;;;;;;19.80;15.30;;;4.60;99.90;;;;;;5009140;28;20466;-67
2022/03/23 05:15:35;;;;;;;22.03;17.53;;;4.60;99.90;;;;;;5007633;28;20550;-67
2022/03/23 05:18:01;;;;;;;24.90;17.90;;;4.50;99.90;;;;;;5006857;28;20524;-67
2022/03/23 05:20:27;;;;;;;26.97;17.30;;;4.50;99.90;;;;;;5011266;28;20454;-67
2022/03/23 05:22:53;;;;;;;25.33;17.03;;;4.40;99.90;;;;;;5011271;28;20183;-67
2022/03/23 05:25:19;;;;;;;26.50;17.20;;;4.40;99.90;;;;;;4997954;28;20198;-67
2022/03/23 05:27:45;;;;;;;21.30;16.87;;;4.40;99.90;;;;;;5011866;28;20830;-67
2022/03/23 05:30:12;;;;;;;23.27;17.00;;;4.40;99.90;;;;;;5007608;28;20455;-67
2022/03/23 05:32:39;;;;;;;20.50;16.90;;;4.40;99.90;;;;;;5007638;28;20713;-67
2022/03/23 05:35:05;;;;;;;26.90;18.03;;;4.40;99.90;;;;;;5010184;28;20556;-67
2022/03/23 05:37:31;;;;;;;24.97;18.47;;;4.40;99.90;;;;;;5010278;28;20446;-67
2022/03/23 05:39:56;;;;;;;21.77;17.27;;;4.40;99.90;;;;;;5003586;28;20459;-67
2022/03/23 05:42:22;;;;;;;27.20;18.70;;;4.30;99.90;;;;;;5010240;28;20167;-67
2022/03/23 05:44:48;;;;;;;28.17;21.30;;;4.30;99.90;;;;;;4990483;28;20243;-67
2022/03/23 05:47:13;;;;;;;22.20;17.47;;;4.20;99.90;;;;;;5005491;28;20199;-67
2022/03/23 05:49:39;;;;;;;23.70;18.00;;;4.30;99.90;;;;;;5009568;28;20210;-67
2022/03/23 05:52:05;;;;;;;25.50;17.80;;;4.40;99.90;;;;;;5006311;28;20204;-67
2022/03/23 05:54:30;;;;;;;33.70;18.97;;;4.50;99.90;;;;;;5005425;28;20198;-67
2022/03/23 05:56:56;;;;;;;29.20;18.73;;;4.60;99.90;;;;;;5006982;28;20454;-67
2022/03/23 05:59:22;;;;;;;20.37;17.93;;;4.70;99.90;;;;;;5009259;28;20580;-67
2022/03/23 06:01:47;;;;;;;27.23;19.63;;;4.90;99.90;;;;;;5004522;28;20653;-67
2022/03/23 06:04:14;;;;;;;35.00;19.40;;;5.00;99.90;;;;;;5009628;28;20183;-67
2022/03/23 06:06:40;;;;;;;23.47;18.50;;;5.10;99.90;;;;;;5010341;28;20175;-67
2022/03/23 06:09:05;;;;;;;27.67;18.17;;;5.30;99.90;;;;;;5004225;28;20461;-67
2022/03/23 06:11:31;;;;;;;30.60;19.67;;;5.50;99.90;;;;;;5008457;28;20438;-67
2022/03/23 06:13:57;;;;;;;29.10;19.73;;;5.60;99.90;;;;;;5004260;28;20207;-67
2022/03/23 06:16:23;;;;;;;26.70;19.03;;;5.80;99.90;;;;;;5011708;28;20241;-67
2022/03/23 06:18:48;;;;;;;27.27;19.10;;;5.80;99.90;;;;;;5009424;28;20203;-67
2022/03/23 06:21:14;;;;;;;28.03;19.30;;;6.00;99.90;;;;;;5006968;28;20513;-67
2022/03/23 06:23:40;;;;;;;25.10;21.60;;;6.10;99.90;;;;;;5007295;28;21365;-68
2022/03/23 06:26:05;;;;;;;23.87;19.50;;;6.20;99.90;;;;;;5006297;28;20267;-67
2022/03/23 06:28:31;;;;;;;26.93;18.60;;;6.30;99.90;;;;;;5010938;28;20273;-69
2022/03/23 06:30:58;;;;;;;25.97;21.77;;;6.50;99.90;;;;;;5009025;28;20223;-68
2022/03/23 06:33:24;;;;;;;26.37;18.67;;;6.60;99.90;;;;;;5009072;28;20511;-67
2022/03/23 06:35:51;;;;;;;30.93;20.43;;;6.80;99.90;;;;;;5008601;28;20457;-67
2022/03/23 06:38:17;;;;;;;30.40;20.30;;;6.90;99.90;;;;;;5008420;28;20450;-67
2022/03/23 06:40:42;;;;;;;32.90;21.00;;;7.10;99.90;;;;;;5005552;28;20535;-67
2022/03/23 06:43:09;;;;;;;25.60;19.57;;;7.30;99.90;;;;;;5009282;28;20187;-68
2022/03/23 06:45:35;;;;;;;23.90;19.00;;;7.40;99.90;;;;;;5010641;28;20173;-67
2022/03/23 06:48:01;;;;;;;27.03;21.00;;;7.40;99.90;;;;;;5004534;28;20445;-68
2022/03/23 06:50:27;;;;;;;29.67;20.20;;;7.40;99.90;;;;;;5009736;28;20453;-67
2022/03/23 06:52:52;;;;;;;25.47;20.00;;;7.40;99.90;;;;;;5007157;28;20187;-67
2022/03/23 06:55:18;;;;;;;22.67;20.27;;;7.60;99.90;;;;;;5006127;28;20203;-67
2022/03/23 06:57:43;;;;;;;33.93;19.93;;;7.80;99.90;;;;;;5004457;28;20272;-67
2022/03/23 07:00:13;;;;;;;25.77;19.33;;;8.10;99.90;;;;;;5001500;28;20198;-69
2022/03/23 07:02:49;;;;;;;27.00;20.00;;;8.30;99.90;;;;;;5008946;28;20183;-70
2022/03/23 07:05:16;;;;;;;26.90;21.07;;;8.60;99.30;;;;;;5006548;28;21079;-69
2022/03/23 07:10:29;;;;;;;24.30;20.30;;;9.10;98.10;;;;;;5010151;28;20993;-70
2022/03/23 07:12:56;;;;;;;30.80;22.73;;;9.30;97.50;;;;;;5016407;28;20967;-70
2022/03/23 07:15:22;;;;;;;28.37;21.90;;;9.50;96.80;;;;;;5004674;28;20462;-70
2022/03/23 07:17:48;;;;;;;29.80;22.03;;;9.70;96.30;;;;;;5010087;28;20437;-70
2022/03/23 07:20:13;;;;;;;22.43;20.03;;;9.80;95.10;;;;;;5002397;28;20854;-70
2022/03/23 07:22:39;;;;;;;28.17;22.67;;;9.90;95.00;;;;;;5010012;28;20183;-69
2022/03/23 07:25:05;;;;;;;24.53;20.23;;;10.00;94.40;;;;;;5010695;28;20198;-70
2022/03/23 07:27:31;;;;;;;24.87;18.90;;;10.20;94.00;;;;;;5011549;28;21261;-69
2022/03/23 07:29:57;;;;;;;28.40;23.10;;;10.40;93.30;;;;;;5004958;28;20877;-69
2022/03/23 07:32:22;;;;;;;26.23;22.57;;;10.50;92.70;;;;;;5005717;28;20480;-69
2022/03/23 07:34:48;;;;;;;39.73;21.90;;;10.70;92.60;;;;;;4985610;28;20229;-69
2022/03/23 07:37:14;;;;;;;25.20;21.20;;;10.90;91.60;;;;;;4987743;28;20260;-70
2022/03/23 07:39:40;;;;;;;26.27;21.20;;;11.10;91.10;;;;;;5003213;28;20736;-70
2022/03/23 07:42:06;;;;;;;26.00;21.20;;;11.30;90.60;;;;;;5011743;28;20438;-70
2022/03/23 07:44:32;;;;;;;30.83;21.87;;;11.40;90.20;;;;;;5005843;28;20241;-71
2022/03/23 07:46:59;;;;;;;32.53;24.07;;;11.60;88.70;;;;;;5007047;28;20237;-69
2022/03/23 07:49:24;;;;;;;26.33;22.13;;;11.70;87.30;;;;;;5012844;28;20453;-69
2022/03/23 07:51:50;;;;;;;30.63;25.80;;;11.50;87.60;;;;;;5014725;28;20437;-69
2022/03/23 07:54:15;;;;;;;28.77;22.47;;;11.30;88.20;;;;;;5005132;28;20202;-69
2022/03/23 07:56:41;;;;;;;27.30;23.40;;;11.30;88.10;;;;;;5012050;28;20187;-69
2022/03/23 07:59:07;;;;;;;30.10;22.37;;;11.40;87.70;;;;;;5011856;28;20207;-69
2022/03/23 08:01:33;;;;;;;30.60;23.97;;;11.40;87.80;;;;;;5011331;28;20221;-70
2022/03/23 08:03:58;;;;;;;33.63;25.10;;;11.80;87.70;;;;;;5006101;28;20203;-70
2022/03/23 08:06:25;;;;;;;34.10;26.50;;;12.10;86.80;;;;;;5007245;28;20488;-70
2022/03/23 08:08:52;;;;;;;25.73;22.37;;;12.40;85.50;;;;;;5019698;28;20281;-70
2022/03/23 08:11:17;;;;;;;30.43;21.63;;;12.80;85.30;;;;;;5016984;28;20508;-69
2022/03/23 08:13:43;;;;;;;25.93;21.50;;;13.30;82.30;;;;;;5012888;28;20856;-70
2022/03/23 08:16:09;;;;;;;29.80;21.43;;;13.80;79.40;;;;;;5012701;28;20187;-70
2022/03/23 08:18:35;;;;;;;25.90;21.30;;;14.10;74.40;;;;;;5013677;28;20591;-70
2022/03/23 08:21:01;;;;;;;27.83;21.47;;;14.30;73.50;;;;;;5009668;28;20524;-70
2022/03/23 08:23:26;;;;;;;30.27;22.57;;;14.50;71.60;;;;;;5006259;28;20588;-69
2022/03/23 08:25:52;;;;;;;22.77;20.60;;;14.50;70.00;;;;;;5007215;28;20270;-69
2022/03/23 08:28:17;;;;;;;26.63;22.90;;;14.70;70.10;;;;;;5008122;28;20183;-69
2022/03/23 08:30:44;;;;;;;23.40;20.80;;;15.00;68.90;;;;;;5007585;28;20264;-70
2022/03/23 08:33:10;;;;;;;23.30;20.53;;;15.20;66.80;;;;;;5004399;28;20179;-69
2022/03/23 08:35:36;;;;;;;24.60;22.10;;;15.40;65.10;;;;;;4998784;28;20858;-69
2022/03/23 08:38:02;;;;;;;32.70;26.80;;;15.70;64.90;;;;;;5000695;28;20195;-69
2022/03/23 08:40:28;;;;;;;24.43;21.80;;;16.00;62.80;;;;;;5009871;28;20960;-70
2022/03/23 08:42:55;;;;;;;25.10;22.60;;;16.50;59.70;;;;;;5004252;28;20193;-69
2022/03/23 08:45:21;;;;;;;25.83;20.33;;;17.10;58.80;;;;;;5008588;28;20178;-69
2022/03/23 08:47:49;;;;;;;29.63;20.57;;;17.80;56.80;;;;;;5009722;28;20437;-69
2022/03/23 08:50:15;;;;;;;23.57;21.07;;;18.10;55.30;;;;;;5007010;28;20213;-70
2022/03/23 08:52:41;;;;;;;22.97;20.20;;;18.40;52.00;;;;;;5001466;28;20529;-71
2022/03/23 08:55:09;;;;;;;21.13;19.03;;;18.60;50.50;;;;;;5004049;28;20972;-71
2022/03/23 08:57:35;;;;;;;22.07;19.87;;;19.10;47.80;;;;;;4998027;28;20446;-70
2022/03/23 09:00:01;;;;;;;23.10;21.10;;;19.50;45.80;;;;;;5009148;28;20468;-70
2022/03/23 09:02:26;;;;;;;24.63;20.97;;;19.70;46.00;;;;;;5005294;28;20441;-70
2022/03/23 09:04:52;;;;;;;21.73;19.50;;;19.60;45.00;;;;;;4996704;28;20311;-71
2022/03/23 09:07:17;;;;;;;21.57;19.50;;;19.90;44.60;;;;;;5001749;28;20204;-70
2022/03/23 09:09:43;;;;;;;20.83;18.87;;;20.00;43.50;;;;;;5010713;28;20218;-71
2022/03/23 09:12:09;;;;;;;20.13;18.20;;;20.40;41.20;;;;;;5005162;28;20627;-71
2022/03/23 09:14:35;;;;;;;21.03;17.47;;;20.90;41.50;;;;;;5008166;28;20202;-72
2022/03/23 09:17:01;;;;;;;19.97;18.10;;;22.10;39.40;;;;;;5006576;28;20918;-71
2022/03/23 09:19:27;;;;;;;21.53;19.30;;;23.20;38.80;;;;;;4989910;28;20461;-72
2022/03/23 09:21:54;;;;;;;19.53;17.50;;;23.60;37.30;;;;;;5009737;28;20446;-69
2022/03/23 09:24:19;;;;;;;19.40;17.90;;;23.30;36.10;;;;;;4998567;28;20268;-69
2022/03/23 09:26:45;;;;;;;18.77;16.97;;;24.50;34.80;;;;;;5002090;28;20466;-70
2022/03/23 09:29:12;;;;;;;17.00;15.50;;;25.50;31.50;;;;;;5007060;28;20216;-70
2022/03/23 09:31:38;;;;;;;19.43;17.70;;;25.50;30.90;;;;;;5013436;28;20434;-70
2022/03/23 09:34:03;;;;;;;19.87;17.93;;;26.00;30.40;;;;;;5006924;28;20579;-70
2022/03/23 09:39:13;;;;;;;21.33;19.70;;;27.60;29.30;;;;;;5002801;28;20732;-69
2022/03/23 09:41:40;;;;;;;18.23;16.57;;;28.00;28.40;;;;;;5012092;28;20425;-71
2022/03/23 09:44:07;;;;;;;18.00;16.50;;;27.70;28.30;;;;;;5006953;28;20605;-69
2022/03/23 09:46:33;;;;;;;17.67;16.00;;;27.60;28.40;;;;;;5005194;28;20441;-71
2022/03/23 09:48:59;;;;;;;21.87;20.07;;;28.30;28.10;;;;;;4998591;28;20239;-70
2022/03/23 09:51:25;;;;;;;19.10;17.70;;;28.50;27.70;;;;;;5011292;28;20480;-70
2022/03/23 09:53:52;;;;;;;20.43;17.83;;;28.40;27.20;;;;;;5005493;28;20199;-68
2022/03/23 09:56:18;;;;;;;18.77;17.30;;;28.90;27.40;;;;;;5007711;28;20438;-70
2022/03/23 09:58:44;;;;;;;19.13;17.73;;;29.30;26.40;;;;;;4991669;28;20608;-71
2022/03/23 10:01:32;;;;;;;19.23;17.63;;;29.30;26.50;;;;;;5007742;28;20195;-69
2022/03/23 10:04:18;;;;;;;18.40;17.10;;;29.40;26.30;;;;;;5008762;28;20211;-69
2022/03/23 10:07:04;;;;;;;21.33;19.30;;;29.40;26.00;;;;;;5005291;28;20438;-71
2022/03/23 10:10:19;;;;;;;21.10;19.50;;;30.20;26.10;;;;;;5008728;28;20458;-69
2022/03/23 10:13:26;;;;;;;21.27;19.43;;;30.10;25.60;;;;;;4995329;28;20460;-71
2022/03/23 10:16:29;;;;;;;17.43;16.20;;;29.50;25.60;;;;;;4985339;28;20441;-70
2022/03/23 10:18:58;;;;;;;18.83;17.23;;;30.80;25.50;;;;;;5005406;28;20472;-71
2022/03/23 10:21:35;;;;;;;19.27;17.87;;;32.20;24.40;;;;;;5009066;28;20445;-71
2022/03/23 10:24:00;;;;;;;17.00;15.70;;;32.40;23.90;;;;;;5002505;28;20477;-70
2022/03/23 10:26:33;;;;;;;19.73;18.23;;;32.40;23.50;;;;;;5002701;28;20803;-69
2022/03/23 10:28:59;;;;;;;16.30;15.00;;;33.50;23.70;;;;;;5009668;28;20290;-69
2022/03/23 10:31:26;;;;;;;15.07;14.07;;;33.90;22.30;;;;;;5009768;28;20460;-70
2022/03/23 10:34:07;;;;;;;16.90;15.50;;;33.50;22.00;;;;;;5000999;28;20457;-71
2022/03/23 10:36:39;;;;;;;17.03;15.80;;;33.30;22.10;;;;;;5001929;28;20442;-70
2022/03/23 10:39:10;;;;;;;15.67;14.47;;;32.90;22.10;;;;;;5005300;28;20477;-69
2022/03/23 10:41:36;;;;;;;16.43;15.23;;;32.20;21.80;;;;;;5004620;28;20449;-70
2022/03/23 10:44:02;;;;;;;19.33;17.70;;;32.50;22.10;;;;;;4999501;28;20730;-70
2022/03/23 10:46:28;;;;;;;13.57;12.63;;;33.10;21.70;;;;;;5006685;28;20442;-69
2022/03/23 10:49:02;;;;;;;15.13;13.93;;;33.70;21.30;;;;;;5009604;28;20253;-69
2022/03/23 10:51:30;;;;;;;14.20;13.20;;;34.10;21.30;;;;;;4997579;28;20181;-69
2022/03/23 10:53:57;;;;;;;13.00;12.00;;;34.70;21.00;;;;;;5007070;28;20453;-70
2022/03/23 10:56:34;;;;;;;13.60;12.73;;;35.00;20.80;;;;;;5013192;28;20445;-69
2022/03/23 10:59:15;;;;;;;14.27;13.20;;;34.50;20.40;;;;;;4996823;28;20463;-69
2022/03/23 11:02:08;;;;;;;14.83;13.73;;;34.10;20.90;;;;;;5007345;28;20442;-69
2022/03/23 11:04:46;;;;;;;13.30;12.30;;;33.80;20.40;;;;;;5001552;28;20469;-66
2022/03/23 11:07:28;;;;;;;14.13;13.13;;;33.90;20.60;;;;;;5013343;28;20436;-66
2022/03/23 11:18:10;;;;;;;11.93;11.13;;;35.70;19.50;;;;;;5013350;28;20444;-66
2022/03/23 11:20:48;;;;;;;12.20;11.07;;;35.60;19.40;;;;;;5008097;28;20488;-66
2022/03/23 11:23:20;;;;;;;13.73;12.73;;;35.00;19.10;;;;;;5010046;28;20445;-66
2022/03/23 11:25:47;;;;;;;12.43;11.13;;;34.80;19.60;;;;;;5005199;28;20465;-67
2022/03/23 11:28:15;;;;;;;12.03;10.93;;;35.20;19.00;;;;;;5009850;28;20454;-67
2022/03/23 11:30:45;;;;;;;11.87;10.87;;;36.00;18.90;;;;;;5005795;28;20453;-67
2022/03/23 11:33:14;;;;;;;10.50;9.43;;;36.80;18.50;;;;;;5003403;28;20522;-67
2022/03/23 11:35:48;;;;;;;9.33;8.63;;;37.40;18.10;;;;;;5000652;28;20840;-66
2022/03/23 11:38:16;;;;;;;10.67;9.77;;;37.90;17.70;;;;;;5006186;28;20461;-64
2022/03/23 11:40:43;;;;;;;11.57;10.57;;;38.30;18.30;;;;;;5001420;28;20458;-64
2022/03/23 11:43:10;;;;;;;11.20;10.40;;;38.30;17.70;;;;;;5014250;28;20437;-62
2022/03/23 11:45:41;;;;;;;11.10;10.27;;;37.60;17.80;;;;;;5005218;28;20501;-63
2022/03/23 11:48:31;;;;;;;11.27;10.37;;;38.70;17.90;;;;;;4990590;28;20515;-64
2022/03/23 11:51:28;;;;;;;10.83;10.10;;;37.60;17.50;;;;;;5002255;28;20484;-63
2022/03/23 11:54:07;;;;;;;11.33;10.43;;;37.20;17.50;;;;;;4995080;28;20479;-65
2022/03/23 11:56:58;;;;;;;10.70;9.80;;;37.40;17.60;;;;;;5009931;28;20445;-65
2022/03/23 11:59:26;;;;;;;10.67;9.43;;;37.60;17.00;;;;;;5006799;28;20540;-67
2022/03/23 12:01:52;;;;;;;10.37;9.30;;;37.90;17.10;;;;;;5003324;28;20442;-67
2022/03/23 12:04:23;;;;;;;10.23;9.53;;;38.20;17.00;;;;;;5009903;28;20465;-68
2022/03/23 12:07:03;;;;;;;14.73;13.67;;;38.80;16.10;;;;;;5005025;28;20460;-67
2022/03/23 12:09:36;;;;;;;12.80;11.80;;;38.90;16.80;;;;;;5011712;28;20685;-67
2022/03/23 12:12:11;;;;;;;13.47;12.07;;;37.60;17.00;;;;;;5012790;28;20437;-67
2022/03/23 12:14:39;;;;;;;13.07;11.80;;;37.70;17.00;;;;;;5008374;28;20433;-67
2022/03/23 12:17:10;;;;;;;12.20;11.40;;;38.10;17.30;;;;;;5010285;28;21717;-67
2022/03/23 12:19:51;;;;;;;9.80;9.10;;;37.70;16.70;;;;;;5012217;28;20515;-68
2022/03/23 12:22:34;;;;;;;8.77;7.97;;;38.80;17.20;;;;;;5013209;28;20442;-67
2022/03/23 12:25:24;;;;;;;10.57;9.87;;;39.10;15.50;;;;;;5007783;28;20872;-67
2022/03/23 12:28:04;;;;;;;12.20;11.30;;;38.30;16.20;;;;;;5005467;28;20433;-67
2022/03/23 12:30:30;;;;;;;11.77;10.87;;;37.90;16.80;;;;;;5012293;28;20544;-67
2022/03/23 12:32:58;;;;;;;11.67;10.77;;;37.30;16.90;;;;;;5013315;28;20433;-67
2022/03/23 12:35:30;;;;;;;12.73;11.70;;;38.10;16.90;;;;;;5010647;28;20241;-67
2022/03/23 12:38:01;;;;;;;12.70;11.90;;;38.60;17.20;;;;;;5005464;28;20468;-67
2022/03/23 12:40:41;;;;;;;12.70;11.60;;;38.90;16.50;;;;;;5009025;28;20571;-67
2022/03/23 12:43:07;;;;;;;11.50;10.60;;;39.40;17.00;;;;;;5007764;28;20911;-67
2022/03/23 12:45:36;;;;;;;11.43;10.57;;;39.20;16.10;;;;;;5006875;28;20541;-67
2022/03/23 12:57:49;;;;;;;11.93;11.13;;;40.00;16.10;;;;;;5010226;28;20318;-67
2022/03/23 12:59:23;;;;;;;13.70;12.70;;;36.60;16.90;;;;;;5003754;28;20608;-67
2022/03/23 13:02:17;;;;;;;13.27;12.17;;;37.70;17.00;;;;;;5002278;28;20460;-67
2022/03/23 13:04:43;;;;;;;11.90;11.00;;;37.60;16.30;;;;;;5006304;28;20465;-68
2022/03/23 13:07:27;;;;;;;14.10;12.90;;;37.10;16.60;;;;;;5008731;28;20484;-68
2022/03/23 13:09:57;;;;;;;13.27;12.33;;;36.40;17.40;;;;;;5003012;28;20693;-67
2022/03/23 13:12:26;;;;;;;14.87;13.70;;;37.20;17.50;;;;;;5007854;28;20442;-68